Flight Track Log - Related Links

Times and Time Zones

All times are in EDT time to prevent confusion due to time zone crossing. See the UAL773 flight status page for this flight to view local times or setup timezone preferences in your user account.

Time Position Orientation Groundspeed Altitude Reporting Facility
EDT Latitude Longitude Course Direction KTS MPH feet Rate Location/Type
Thu 08:12:09 PM 40.7500 -74.1333 304° West 197 227 2,500  Level New York TRACON
Thu 08:13:09 PM 40.8000 -74.1667 333° Northwest 239 275 5,500 2,800 Climbing New York TRACON
Thu 08:14:09 PM 40.8333 -74.2500 298° West 258 297 8,100 1,607 Climbing New York TRACON
Thu 08:15:00 PM 41.2144 -74.3048 346° North  Level FlightAware Approximate
Thu 08:15:57 PM 40.9219 -74.3547 318° Northwest 263 303 10,000  Level New York Center
Thu 08:16:00 PM 41.3206 -74.3333 North  Level FlightAware Approximate
Thu 08:16:57 PM 40.9967 -74.3617 356° North 282 325 11,200  Level New York Center
Thu 08:17:00 PM 41.4154 -74.3808 304° West  Level FlightAware Approximate
Thu 08:17:57 PM 41.1028 -74.3617 360° North 343 395 12,800  Level New York Center
Thu 08:18:57 PM 41.1897 -74.4489 323° Northwest 362 417 16,100 2,600 Climbing New York Center
Thu 08:19:57 PM 41.2469 -74.5458 308° West 357 411 18,000 1,700 Climbing New York Center
Thu 08:20:57 PM 41.3186 -74.6550 311° West 357 411 19,500 1,900 Climbing New York Center
Thu 08:21:57 PM 41.3753 -74.7661 304° West 377 434 21,800 2,050 Climbing New York Center
Thu 08:22:57 PM 41.4478 -74.8950 307° West 399 459 23,600 1,600 Climbing New York Center
Thu 08:23:57 PM 41.4922 -74.9972 300° West 399 459 25,000 1,650 Climbing New York Center
Thu 08:24:57 PM 41.5553 -75.1508 299° West 394 453 26,900 1,650 Climbing New York Center
Thu 08:25:57 PM 41.6067 -75.2764 299° West 394 453 28,300 1,500 Climbing New York Center
Thu 08:26:57 PM 41.6583 -75.3992 299° West 389 448 29,900 1,500 Climbing New York Center
Thu 08:27:57 PM 41.7097 -75.5222 299° West 382 440 31,300 1,400 Climbing New York Center
Thu 08:28:57 PM 41.7608 -75.6456 299° West 382 440 32,700 1,300 Climbing New York Center
Thu 08:29:57 PM 41.8100 -75.7661 299° West 382 440 33,900 1,150 Climbing New York Center
Thu 08:30:57 PM 41.8589 -75.8867 299° West 382 440 35,000 950 Climbing New York Center
Thu 08:31:57 PM 41.9078 -76.0103 298° West 382 440 35,800 500 Climbing New York Center
Thu 08:32:57 PM 41.9586 -76.1314 299° West 382 440 36,000 100 Climbing New York Center
Thu 08:33:57 PM 42.0072 -76.2525 298° West 382 440 36,000  Level New York Center
Thu 08:34:57 PM 42.0500 -76.3622 298° West 382 440 36,000  Level New York Center
Thu 08:36:40 PM 42.1364 -76.5814 298° West 381 438 36,000  Level Cleveland Center
Thu 08:37:40 PM 42.1864 -76.7044 299° West 376 433 36,000  Level Cleveland Center
Thu 08:38:40 PM 42.2344 -76.8278 298° West 376 433 36,000  Level Cleveland Center
Thu 08:39:40 PM 42.2842 -76.9483 299° West 376 433 36,000  Level Cleveland Center
Thu 08:40:40 PM 42.3317 -77.0719 297° West 376 433 36,000  Level Cleveland Center
Thu 08:41:40 PM 42.3792 -77.1986 297° West 382 440 36,000  Level Cleveland Center
Thu 08:42:40 PM 42.4267 -77.3228 297° West 382 440 36,000  Level Cleveland Center
Thu 08:43:39 PM 42.4781 -77.4497 299° West 382 440 36,000  Level Cleveland Center
Thu 08:44:40 PM 42.5253 -77.5797 296° West 382 440 36,000 -50 Level Cleveland Center
Thu 08:45:40 PM 42.5767 -77.7069 299° West 382 440 35,900  Descending Cleveland Center
Thu 08:46:40 PM 42.6256 -77.8403 297° West 382 440 36,000 50 Climbing Cleveland Center
Thu 08:47:40 PM 42.6700 -77.9542 298° West 387 445 36,000  Level Cleveland Center
Thu 08:48:40 PM 42.7208 -78.0847 298° West 382 440 36,000  Level Cleveland Center
Thu 08:49:40 PM 42.7694 -78.2158 297° West 382 440 36,000  Level Cleveland Center
Thu 08:50:39 PM 42.8181 -78.3500 296° West 382 440 36,000  Level Cleveland Center
Thu 08:51:40 PM 42.8683 -78.4814 298° West 387 445 36,000  Level Cleveland Center
Thu 08:52:40 PM 42.9186 -78.6158 297° West 387 445 36,000  Level Cleveland Center
Thu 08:53:40 PM 42.9667 -78.7475 297° West 392 451 36,000  Level Cleveland Center
Thu 08:54:40 PM 43.0125 -78.8853 295° West 398 458 36,000  Level Cleveland Center
Thu 08:55:40 PM 43.0625 -79.0233 296° West 398 458 36,000  Level Cleveland Center
Thu 08:57:07 PM 43.1167 -79.2167 291° West 400 460 36,000  Level Toronto Center
Thu 08:58:07 PM 43.1667 -79.3667 295° West 400 460 36,000  Level Toronto Center
Thu 08:59:07 PM 43.2167 -79.5000 297° West 410 472 36,000  Level Toronto Center
Thu 09:00:07 PM 43.2667 -79.6333 297° West 410 472 36,000  Level Toronto Center
Thu 09:01:07 PM 43.3167 -79.8000 292° West 410 472 36,000  Level Toronto Center
Thu 09:02:07 PM 43.3667 -79.9333 297° West 410 472 36,000  Level Toronto Center
Thu 09:03:07 PM 43.4000 -80.0667 289° West 410 472 36,000  Level Toronto Center
Thu 09:04:07 PM 43.4500 -80.2000 297° West 410 472 36,000  Level Toronto Center
Thu 09:05:07 PM 43.5000 -80.3500 295° West 410 472 36,000  Level Toronto Center
Thu 09:06:07 PM 43.5500 -80.4833 297° West 410 472 36,000  Level Toronto Center
Thu 09:07:07 PM 43.6000 -80.6500 293° West 410 472 36,000  Level Toronto Center
Thu 09:08:07 PM 43.6500 -80.7833 297° West 410 472 36,000  Level Toronto Center
Thu 09:09:07 PM 43.6833 -80.9167 289° West 420 483 36,000  Level Toronto Center
Thu 09:10:07 PM 43.7333 -81.0667 295° West 420 483 36,000  Level Toronto Center
Thu 09:11:07 PM 43.7833 -81.2333 293° West 420 483 36,000  Level Toronto Center
Thu 09:12:07 PM 43.8167 -81.3667 289° West 420 483 36,000  Level Toronto Center
Thu 09:13:07 PM 43.8667 -81.5000 298° West 420 483 36,000 50 Level Toronto Center
Thu 09:14:07 PM 43.9167 -81.6667 293° West 420 483 36,100 400 Climbing Toronto Center
Thu 09:15:07 PM 43.9667 -81.8167 295° West 420 483 36,800 950 Climbing Toronto Center
Thu 09:16:07 PM 44.0000 -81.9500 289° West 420 483 38,000 600 Climbing Toronto Center
Thu 09:17:07 PM 44.0500 -82.1000 295° West 410 472 38,000  Level Toronto Center
Thu 09:18:07 PM 44.1000 -82.2500 295° West 410 472 38,000  Level Toronto Center
Thu 09:19:07 PM 44.1500 -82.4000 295° West 410 472 38,000  Level Toronto Center
Thu 09:20:07 PM 44.2000 -82.5333 298° West 420 483 38,000  Level Toronto Center
Thu 09:21:07 PM 44.2167 -82.6833 279° West 410 472 38,000  Level Toronto Center
Thu 09:22:07 PM 44.2667 -82.8500 293° West 410 472 38,000  Level Toronto Center
Thu 09:23:07 PM 44.3214 -82.9650 304° West 410 472 38,000 -49 Level Minneapolis Center
Thu 09:24:10 PM 44.3742 -83.1414 293° West 410 472 37,900 -48 Descending Minneapolis Center
Thu 09:25:11 PM 44.4186 -83.2883 293° West 411 473 37,900 49 Level Minneapolis Center
Thu 09:26:13 PM 44.4550 -83.4411 289° West 414 476 38,000 48 Climbing Minneapolis Center
Thu 09:27:15 PM 44.4717 -83.6042 278° West 422 486 38,000  Level Minneapolis Center
Thu 09:28:29 PM 44.4892 -83.7683 279° West 425 489 38,000 -44 Level Minneapolis Center
Thu 09:29:30 PM 44.5097 -83.9636 278° West 424 488 37,900  Descending Minneapolis Center
Thu 09:30:44 PM 44.5300 -84.1561 278° West 419 482 38,000 44 Climbing Minneapolis Center
Thu 09:31:46 PM 44.5500 -84.3486 278° West 418 481 38,000 -48 Level Minneapolis Center
Thu 09:32:48 PM 44.5692 -84.5042 280° West 411 473 37,900 -49 Descending Minneapolis Center
Thu 09:33:49 PM 44.5850 -84.6614 278° West 408 470 37,900  Level Minneapolis Center
Thu 09:34:51 PM 44.6003 -84.8189 278° West 408 470 37,900  Level Minneapolis Center
Thu 09:35:52 PM 44.6156 -84.9769 278° West 409 471 37,900 49 Level Minneapolis Center
Thu 09:36:53 PM 44.6311 -85.1358 278° West 411 473 38,000  Climbing Minneapolis Center
Thu 09:37:56 PM 44.6486 -85.3264 277° West 411 473 37,900  Descending Minneapolis Center
Thu 09:38:58 PM 44.6653 -85.4861 278° West 415 478 38,000 49 Climbing Minneapolis Center
Thu 09:39:59 PM 44.7078 -85.6317 292° West 406 467 38,000  Level Minneapolis Center
Thu 09:41:01 PM 44.7678 -85.7642 303° West 407 468 38,000  Level Minneapolis Center
Thu 09:42:02 PM 44.8292 -85.8942 304° West 402 463 38,000  Level Minneapolis Center
Thu 09:43:03 PM 44.8903 -86.0239 304° West 400 460 38,000  Level Minneapolis Center
Thu 09:44:05 PM 44.9497 -86.1567 302° West 400 460 38,000  Level Minneapolis Center
Thu 09:45:06 PM 45.0100 -86.2869 303° West 400 460 38,000  Level Minneapolis Center
Thu 09:46:08 PM 45.0825 -86.4442 303° West 399 459 38,000  Level Minneapolis Center
Thu 09:47:09 PM 45.1425 -86.5781 302° West 402 463 38,000  Level Minneapolis Center
Thu 09:48:11 PM 45.2028 -86.7108 303° West 402 463 38,000  Level Minneapolis Center
Thu 09:49:12 PM 45.2592 -86.8353 303° West 402 463 38,000  Level Minneapolis Center
Thu 09:50:13 PM 45.3189 -86.9714 302° West 406 467 38,000  Level Minneapolis Center
Thu 09:51:15 PM 45.3914 -87.1328 303° West 405 466 38,000  Level Minneapolis Center
Thu 09:52:16 PM 45.4511 -87.2694 302° West 408 470 38,000 -49 Level Minneapolis Center
Thu 09:53:17 PM 45.5106 -87.4050 302° West 407 468 37,900  Descending Minneapolis Center
Thu 09:54:19 PM 45.5706 -87.5419 302° West 407 468 38,000 49 Climbing Minneapolis Center
Thu 09:55:20 PM 45.6297 -87.6789 302° West 406 467 38,000  Level Minneapolis Center
Thu 09:56:21 PM 45.6892 -87.8158 302° West 406 467 38,000 -49 Level Minneapolis Center
Thu 09:57:22 PM 45.7478 -87.9511 302° West 402 463 37,900 -49 Descending Minneapolis Center
Thu 09:58:23 PM 45.8056 -88.0878 301° West 402 463 37,900 49 Level Minneapolis Center
Thu 09:59:25 PM 45.8753 -88.2494 302° West 401 461 38,000 49 Climbing Minneapolis Center
Thu 10:00:26 PM 45.9331 -88.3875 301° West 403 464 38,000  Level Minneapolis Center
Thu 10:01:27 PM 45.9919 -88.5244 302° West 404 465 38,000  Level Minneapolis Center
Thu 10:02:28 PM 46.0503 -88.6619 301° West 406 467 38,000  Level Minneapolis Center
Thu 10:03:29 PM 46.1083 -88.8008 301° West 406 467 38,000 -49 Level Minneapolis Center
Thu 10:04:31 PM 46.1678 -88.9425 301° West 408 470 37,900  Descending Minneapolis Center
Thu 10:05:32 PM 46.2236 -89.0853 300° West 410 472 38,000 49 Climbing Minneapolis Center
Thu 10:06:33 PM 46.2797 -89.2286 300° West 411 473 38,000  Level Minneapolis Center
Thu 10:07:34 PM 46.3403 -89.3686 302° West 412 474 38,000  Level Minneapolis Center
Thu 10:08:35 PM 46.4097 -89.5258 303° West 410 472 38,000  Level Minneapolis Center
Thu 10:09:36 PM 46.4661 -89.6681 300° West 410 472 38,000  Level Minneapolis Center
Thu 10:10:38 PM 46.5239 -89.8094 301° West 409 471 38,000  Level Minneapolis Center
Thu 10:11:39 PM 46.5794 -89.9517 300° West 409 471 38,000  Level Minneapolis Center
Thu 10:12:40 PM 46.6386 -90.0942 301° West 412 474 38,000  Level Minneapolis Center
Thu 10:13:41 PM 46.6950 -90.2375 300° West 410 472 38,000  Level Minneapolis Center
Thu 10:14:42 PM 46.7506 -90.3814 299° West 409 471 38,000  Level Minneapolis Center
Thu 10:15:43 PM 46.8069 -90.5242 300° West 406 467 38,000  Level Minneapolis Center
Thu 10:16:45 PM 46.8631 -90.6669 300° West 406 467 38,000  Level Minneapolis Center
Thu 10:17:46 PM 46.9300 -90.8394 300° West 407 468 38,000  Level Minneapolis Center
Thu 10:18:47 PM 46.9861 -90.9847 300° West 409 471 38,000  Level Minneapolis Center
Thu 10:19:48 PM 47.0325 -91.1056 299° West 409 471 38,000  Level Minneapolis Center
Thu 10:20:49 PM 47.1000 -91.2794 300° West 409 471 38,000  Level Minneapolis Center
Thu 10:21:50 PM 47.1544 -91.4242 299° West 406 467 38,000 -49 Level Minneapolis Center
Thu 10:22:51 PM 47.2097 -91.5697 299° West 407 468 37,900 -49 Descending Minneapolis Center
Thu 10:23:52 PM 47.2539 -91.6864 299° West 409 471 37,900 49 Level Minneapolis Center
Thu 10:24:54 PM 47.3197 -91.8636 299° West 412 474 38,000 49 Climbing Minneapolis Center
Thu 10:25:55 PM 47.3747 -92.0122 299° West 414 476 38,000  Level Minneapolis Center
Thu 10:26:56 PM 47.4300 -92.1600 299° West 414 476 38,000 -49 Level Minneapolis Center
Thu 10:27:57 PM 47.4856 -92.3081 299° West 414 476 37,900  Descending Minneapolis Center
Thu 10:28:58 PM 47.5419 -92.4592 299° West 418 481 38,000 49 Climbing Minneapolis Center
Thu 10:29:59 PM 47.6075 -92.6389 298° West 419 482 38,000  Level Minneapolis Center
Thu 10:31:01 PM 47.6617 -92.7908 298° West 420 483 38,000 -49 Level Minneapolis Center
Thu 10:32:02 PM 47.7158 -92.9422 298° West 421 484 37,900 -45 Descending Minneapolis Center
Thu 10:33:15 PM 47.7692 -93.0939 298° West 420 483 37,900 45 Level Minneapolis Center
Thu 10:34:16 PM 47.8336 -93.2739 298° West 416 479 38,000 49 Climbing Minneapolis Center
Thu 10:35:17 PM 47.8869 -93.4269 298° West 420 483 38,000  Level Minneapolis Center
Thu 10:36:19 PM 47.9411 -93.5811 298° West 422 486 38,000 -49 Level Minneapolis Center
Thu 10:37:20 PM 47.9939 -93.7336 297° West 419 482 37,900 -49 Descending Minneapolis Center
Thu 10:38:21 PM 48.0564 -93.9150 297° West 413 475 37,900  Level Minneapolis Center
Thu 10:39:22 PM 48.1086 -94.0672 297° West 413 475 37,900 49 Level Minneapolis Center
Thu 10:40:24 PM 48.1619 -94.2208 298° West 416 479 38,000 49 Climbing Minneapolis Center
Thu 10:41:25 PM 48.2142 -94.3742 297° West 416 479 38,000  Level Minneapolis Center
Thu 10:42:26 PM 48.2661 -94.5281 297° West 415 478 38,000 -49 Level Minneapolis Center
Thu 10:43:27 PM 48.3169 -94.6825 296° West 414 476 37,900 -49 Descending Minneapolis Center
Thu 10:44:28 PM 48.3683 -94.8356 297° West 413 475 37,900  Level Minneapolis Center
Thu 10:45:30 PM 48.4192 -94.9886 297° West 412 474 37,900 49 Level Minneapolis Center
Thu 10:46:31 PM 48.4706 -95.1431 297° West 413 475 38,000 49 Climbing Minneapolis Center
Thu 10:47:32 PM 48.5314 -95.3283 296° West 412 474 38,000  Level Minneapolis Center
Thu 10:48:33 PM 48.5819 -95.4831 296° West 413 475 38,000  Level Minneapolis Center
Thu 10:49:35 PM 48.6239 -95.6153 296° West 412 474 38,000  Level Minneapolis Center
Thu 10:50:36 PM 48.6842 -95.8008 296° West 412 474 38,000  Level Minneapolis Center
Thu 10:51:37 PM 48.7336 -95.9556 296° West 411 473 38,000 -49 Level Minneapolis Center
Thu 10:52:38 PM 48.7831 -96.1100 296° West 411 473 37,900  Descending Minneapolis Center
Thu 10:53:24 PM 48.8000 -96.2000 286° West 410 472 38,000 57 Climbing Winnipeg Center
Thu 10:54:24 PM 48.8500 -96.3833 293° West 410 472 38,000  Level Winnipeg Center
Thu 10:55:24 PM 48.9167 -96.5333 304° West 410 472 38,000  Level Winnipeg Center
Thu 10:56:24 PM 48.9667 -96.7167 293° West 410 472 38,000  Level Winnipeg Center
Thu 10:57:24 PM 49.0000 -96.8667 289° West 420 483 38,000  Level Winnipeg Center
Thu 10:58:24 PM 49.0667 -97.0167 304° West 420 483 38,000  Level Winnipeg Center
Thu 10:59:24 PM 49.1000 -97.1667 289° West 410 472 38,000  Level Winnipeg Center
Thu 11:00:24 PM 49.1500 -97.3167 297° West 420 483 38,000 50 Level Winnipeg Center
Thu 11:01:24 PM 49.2000 -97.5000 293° West 410 472 38,100  Climbing Winnipeg Center
Thu 11:02:24 PM 49.2500 -97.6500 297° West 410 472 38,000 -100 Descending Winnipeg Center
Thu 11:03:24 PM 49.2833 -97.8167 287° West 410 472 37,900  Descending Winnipeg Center
Thu 11:04:24 PM 49.3333 -97.9667 297° West 410 472 38,000 50 Climbing Winnipeg Center
Thu 11:05:24 PM 49.3667 -98.1167 289° West 410 472 38,000  Level Winnipeg Center
Thu 11:06:24 PM 49.4167 -98.2833 295° West 410 472 38,000  Level Winnipeg Center
Thu 11:07:24 PM 49.4667 -98.4333 297° West 410 472 38,000  Level Winnipeg Center
Thu 11:08:24 PM 49.5167 -98.6167 293° West 410 472 38,000  Level Winnipeg Center
Thu 11:09:24 PM 49.5667 -98.7667 297° West 410 472 38,000  Level Winnipeg Center
Thu 11:10:24 PM 49.6167 -98.9333 295° West 400 460 38,000  Level Winnipeg Center
Thu 11:11:24 PM 49.6667 -99.0833 297° West 400 460 38,000  Level Winnipeg Center
Thu 11:12:24 PM 49.7000 -99.2500 287° West 400 460 38,000  Level Winnipeg Center
Thu 11:13:24 PM 49.7333 -99.4000 289° West 400 460 38,000  Level Winnipeg Center
Thu 11:14:24 PM 49.7833 -99.5500 297° West 400 460 38,000  Level Winnipeg Center
Thu 11:15:24 PM 49.8333 -99.7167 295° West 400 460 38,000  Level Winnipeg Center
Thu 11:16:24 PM 49.8833 -99.8667 297° West 400 460 38,000  Level Winnipeg Center
Thu 11:17:24 PM 49.9167 -100.0333 287° West 400 460 38,000  Level Winnipeg Center
Thu 11:18:24 PM 49.9667 -100.2000 295° West 400 460 38,000  Level Winnipeg Center
Thu 11:19:24 PM 50.0333 -100.3500 305° West 400 460 38,000  Level Winnipeg Center
Thu 11:20:24 PM 50.0833 -100.5167 295° West 400 460 38,000  Level Winnipeg Center
Thu 11:21:24 PM 50.1167 -100.6500 291° West 400 460 38,000  Level Winnipeg Center
Thu 11:22:24 PM 50.1833 -100.8000 305° West 400 460 38,000  Level Winnipeg Center
Thu 11:23:24 PM 50.2333 -100.9667 295° West 400 460 38,000  Level Winnipeg Center
Thu 11:24:24 PM 50.2667 -101.1333 287° West 400 460 38,000  Level Winnipeg Center
Thu 11:25:24 PM 50.3333 -101.3000 302° West 400 460 38,000  Level Winnipeg Center
Thu 11:26:24 PM 50.3833 -101.4333 300° West 400 460 38,000  Level Winnipeg Center
Thu 11:27:24 PM 50.4333 -101.6000 295° West 400 460 38,000  Level Winnipeg Center
Thu 11:28:24 PM 50.4833 -101.7500 298° West 400 460 38,000  Level Winnipeg Center
Thu 11:29:24 PM 50.5333 -101.8833 301° West 400 460 38,000  Level Winnipeg Center
Thu 11:30:24 PM 50.5833 -102.0500 295° West 390 449 38,000  Level Winnipeg Center
Thu 11:31:24 PM 50.6333 -102.2167 295° West 390 449 38,000  Level Winnipeg Center
Thu 11:32:24 PM 50.6667 -102.3500 292° West 390 449 38,000  Level Winnipeg Center
Thu 11:33:24 PM 50.7167 -102.5167 295° West 390 449 38,000  Level Winnipeg Center
Thu 11:34:24 PM 50.7833 -102.6833 302° West 390 449 38,000  Level Winnipeg Center
Thu 11:35:24 PM 50.8167 -102.8500 288° West 390 449 38,000  Level Winnipeg Center
Thu 11:36:24 PM 50.8667 -102.9833 301° West 390 449 38,000  Level Winnipeg Center
Thu 11:37:24 PM 50.9167 -103.1500 296° West 390 449 38,000  Level Winnipeg Center
Thu 11:38:24 PM 50.9667 -103.3000 298° West 390 449 38,000  Level Winnipeg Center
Thu 11:39:24 PM 51.0000 -103.4667 288° West 390 449 38,000  Level Winnipeg Center
Thu 11:40:24 PM 51.0500 -103.6333 296° West 390 449 38,000  Level Winnipeg Center
Thu 11:41:24 PM 51.1000 -103.8000 296° West 390 449 38,000  Level Winnipeg Center
Thu 11:42:24 PM 51.1500 -103.9333 301° West 390 449 38,000  Level Winnipeg Center
Thu 11:43:24 PM 51.1833 -104.1000 288° West 390 449 38,000  Level Winnipeg Center
Thu 11:44:24 PM 51.2500 -104.2500 305° West 390 449 38,000  Level Winnipeg Center
Thu 11:45:24 PM 51.2833 -104.4167 288° West 390 449 38,000  Level Winnipeg Center
Thu 11:46:24 PM 51.3167 -104.5833 288° West 390 449 38,000  Level Winnipeg Center
Thu 11:47:24 PM 51.3667 -104.7167 301° West 390 449 38,000  Level Winnipeg Center
Thu 11:48:24 PM 51.4167 -104.9000 294° West 390 449 38,000  Level Winnipeg Center
Thu 11:49:24 PM 51.4500 -105.0333 292° West 390 449 38,000  Level Winnipeg Center
Thu 11:50:24 PM 51.5000 -105.2000 296° West 390 449 38,000  Level Winnipeg Center
Thu 11:51:24 PM 51.5333 -105.3667 288° West 390 449 38,000  Level Winnipeg Center
Thu 11:52:24 PM 51.6000 -105.5167 306° West 390 449 38,000  Level Winnipeg Center
Thu 11:53:24 PM 51.6333 -105.6833 288° West 390 449 38,000  Level Winnipeg Center
Thu 11:54:24 PM 51.6667 -105.8667 286° West 390 449 38,000  Level Winnipeg Center
Thu 11:55:24 PM 51.7000 -106.0000 292° West 390 449 38,000  Level Winnipeg Center
Thu 11:56:24 PM 51.7667 -106.1833 300° West 390 449 38,000  Level Winnipeg Center
Thu 11:57:24 PM 51.8000 -106.3500 288° West 390 449 38,000  Level Winnipeg Center
Thu 11:58:24 PM 51.8333 -106.5167 288° West 400 460 38,000  Level Winnipeg Center
Thu 11:59:24 PM 51.8833 -106.6667 298° West 400 460 38,000  Level Winnipeg Center
Fri 12:00:24 AM 51.9333 -106.8333 296° West 400 460 38,000  Level Winnipeg Center
Fri 12:01:24 AM 51.9667 -107.0167 287° West 400 460 38,000  Level Winnipeg Center
Fri 12:02:24 AM 52.0167 -107.1833 296° West 400 460 38,000  Level Winnipeg Center
Fri 12:03:24 AM 52.0500 -107.3333 290° West 400 460 38,000  Level Winnipeg Center
Fri 12:04:24 AM 52.1000 -107.5167 294° West 400 460 38,000  Level Winnipeg Center
Fri 12:05:24 AM 52.1333 -107.6833 288° West 400 460 38,000  Level Winnipeg Center
Fri 12:06:24 AM 52.1667 -107.8500 288° West 400 460 38,000  Level Winnipeg Center
Fri 12:07:24 AM 52.2333 -108.0167 303° West 400 460 38,000  Level Winnipeg Center
Fri 12:08:24 AM 52.2667 -108.1833 288° West 400 460 38,000  Level Winnipeg Center
Fri 12:09:24 AM 52.3000 -108.3500 288° West 400 460 38,000  Level Winnipeg Center
Fri 12:10:24 AM 52.3500 -108.5333 294° West 400 460 38,000  Level Winnipeg Center
Fri 12:11:24 AM 52.3833 -108.7167 287° West 400 460 38,000  Level Winnipeg Center
Fri 12:12:24 AM 52.4167 -108.8667 290° West 410 472 38,000  Level Winnipeg Center
Fri 12:13:24 AM 52.4667 -109.0333 296° West 400 460 38,000  Level Winnipeg Center
Fri 12:14:24 AM 52.5000 -109.2167 287° West 410 472 38,000  Level Winnipeg Center
Fri 12:15:24 AM 52.5500 -109.4000 294° West 410 472 38,000  Level Winnipeg Center
Fri 12:16:24 AM 52.5667 -109.5667 279° West 410 472 38,000  Level Winnipeg Center
Fri 12:17:24 AM 52.6167 -109.7500 294° West 410 472 38,000  Level Winnipeg Center
Fri 12:18:24 AM 52.6500 -109.9333 287° West 410 472 38,000  Level Winnipeg Center
Fri 12:19:24 AM 52.6833 -110.0833 290° West 400 460 38,000  Level Winnipeg Center
Fri 12:20:24 AM 52.7167 -110.2500 288° West 400 460 38,000  Level Winnipeg Center
Fri 12:21:24 AM 52.7500 -110.4667 284° West 400 460 38,000  Level Winnipeg Center
Fri 12:22:24 AM 52.7667 -110.6333 279° West 400 460 38,000 -1,150 Level Winnipeg Center
Fri 12:23:24 AM 52.7833 -110.8167 279° West 410 472 35,700 -2,800 Descending Winnipeg Center
Fri 12:24:24 AM 52.8167 -111.0167 285° West 430 495 32,400 -3,450 Descending Winnipeg Center
Fri 12:25:24 AM 52.8500 -111.2167 286° West 440 506 28,800 -3,450 Descending Winnipeg Center
Fri 12:26:24 AM 52.8667 -111.4000 279° West 440 506 25,500 -2,750 Descending Winnipeg Center
Fri 12:27:24 AM 52.9000 -111.6000 286° West 440 506 23,300 -2,500 Descending Winnipeg Center
Fri 12:28:24 AM 52.9333 -111.7833 287° West 420 483 20,500 -2,500 Descending Winnipeg Center
Fri 12:29:24 AM 52.9333 -111.9667 270° West 410 472 18,300 -2,350 Descending Winnipeg Center
Fri 12:30:24 AM 52.9667 -112.1333 288° West 390 449 15,800 -2,400 Descending Winnipeg Center
Fri 12:31:24 AM 52.9833 -112.3167 279° West 370 426 13,500 -2,050 Descending Winnipeg Center
Fri 12:32:24 AM 53.0167 -112.4667 290° West 360 414 11,700 -1,500 Descending Winnipeg Center
Fri 12:33:24 AM 53.0167 -112.6167 270° West 340 391 10,500 -950 Descending Winnipeg Center
Fri 12:34:24 AM 53.0333 -112.7667 281° West 290 334 9,800 -1,150 Descending Winnipeg Center
Fri 12:35:24 AM 53.0500 -112.8833 283° West 280 322 8,200 -1,700 Descending Winnipeg Center
Fri 12:36:24 AM 53.0667 -113.0000 283° West 280 322 6,400 -1,133 Descending Winnipeg Center
Fri 12:37:47 AM 53.0833 -113.1500 281° West 280 322 5,500 -378 Descending Edmonton Center
Fri 12:38:47 AM 53.1167 -113.2667 295° West 250 288 5,500  Level Edmonton Center
Fri 12:39:47 AM 53.1333 -113.3500 288° West 220 253 5,500 -250 Level Edmonton Center
Fri 12:40:47 AM 53.1500 -113.4167 293° West 200 230 5,000 -750 Descending Edmonton Center
Fri 12:41:47 AM 53.2000 -113.4833 321° Northwest 190 219 4,000 -900 Descending Edmonton Center
Fri 12:42:47 AM 53.2333 -113.5333 318° Northwest 140 161 3,200 -750 Descending Edmonton Center
Fri 12:43:47 AM 53.2667 -113.5833 318° Northwest 130 150 2,500 -450 Descending Edmonton Center
Fri 12:44:47 AM 53.2833 -113.6333 299° West 130 150 2,300 -200 Descending Edmonton Center

Login

Don't have an account? Register now (free) for customized features, flight alerts, and more!